Time;durP1;ratioP1;P1;durP2;ratioP2;P2;SDS_P1;SDS_P2;PMS_P1;PMS_P2;Temp;Humidity;BMP_temperature;BMP_pressure;BME280_temperature;BME280_humidity;BME280_pressure;Samples;Min_cycle;Max_cycle;Signal;HPM_P1;HPM_P2
2023/11/12 00:00:07;;;;;;;3.12;0.75;;;11.40;71.60;;;;;;2332314;58;20978;-68
2023/11/12 00:02:34;;;;;;;1.90;0.70;;;11.40;71.60;;;;;;2129832;59;21030;-69
2023/11/12 00:05:01;;;;;;;2.60;0.70;;;11.40;71.60;;;;;;2129613;59;20990;-66
2023/11/12 00:07:28;;;;;;;2.42;0.70;;;11.40;72.20;;;;;;2129567;59;21053;-70
2023/11/12 00:09:54;;;;;;;1.80;0.65;;;11.40;71.50;;;;;;2331296;58;21498;-69
2023/11/12 00:13:13;;;;;;;2.20;0.85;;;11.40;71.50;;;;;;2330947;58;21001;-70
2023/11/12 00:15:40;;;;;;;2.03;0.60;;;11.40;71.10;;;;;;2130390;59;20974;-68
2023/11/12 00:18:07;;;;;;;1.58;0.68;;;11.40;71.60;;;;;;2331567;58;20954;-68
2023/11/12 00:20:33;;;;;;;2.85;0.75;;;11.30;71.50;;;;;;2331451;58;21011;-69
2023/11/12 00:23:00;;;;;;;2.90;0.70;;;11.40;71.60;;;;;;2130294;59;21889;-65
2023/11/12 00:25:26;;;;;;;3.67;1.00;;;11.30;71.50;;;;;;2331049;58;21073;-66
2023/11/12 00:27:54;;;;;;;2.08;0.80;;;11.40;71.70;;;;;;2134068;59;21408;-65
2023/11/12 00:30:21;;;;;;;2.37;0.68;;;11.40;71.70;;;;;;2331539;58;21032;-66
2023/11/12 00:32:47;;;;;;;2.03;0.80;;;11.40;71.80;;;;;;2133010;59;21054;-65
2023/11/12 00:35:13;;;;;;;1.55;0.70;;;11.40;71.80;;;;;;2129314;59;20970;-66
2023/11/12 00:37:40;;;;;;;1.83;0.68;;;11.40;71.80;;;;;;2130116;59;21160;-65
2023/11/12 00:40:07;;;;;;;1.35;0.60;;;11.40;71.80;;;;;;2129986;59;21058;-66
2023/11/12 00:42:34;;;;;;;1.70;0.65;;;11.40;71.90;;;;;;2129772;59;20961;-70
2023/11/12 00:45:00;;;;;;;1.80;0.60;;;11.40;71.90;;;;;;2133979;59;21169;-69
2023/11/12 00:47:27;;;;;;;2.80;0.70;;;11.40;71.90;;;;;;2336128;58;20970;-67
2023/11/12 00:49:53;;;;;;;1.58;0.70;;;11.40;71.80;;;;;;2129978;59;20972;-66
2023/11/12 00:52:20;;;;;;;2.30;0.80;;;11.40;71.80;;;;;;2331378;58;20991;-69
2023/11/12 00:54:47;;;;;;;3.35;0.90;;;11.40;71.80;;;;;;2331884;58;21881;-68
2023/11/12 00:57:13;;;;;;;3.42;1.25;;;11.40;71.70;;;;;;2332224;58;21038;-68
2023/11/12 00:59:42;;;;;;;5.18;2.37;;;11.20;71.50;;;;;;2130629;59;20990;-68
2023/11/12 01:02:11;;;;;;;8.85;3.70;;;11.40;71.60;;;;;;2135244;58;21062;-66
2023/11/12 01:04:39;;;;;;;7.03;3.05;;;11.40;71.50;;;;;;2336990;58;20989;-66
2023/11/12 01:07:05;;;;;;;7.03;3.05;;;11.40;71.50;;;;;;2134232;59;21087;-66
2023/11/12 01:09:31;;;;;;;8.27;3.05;;;11.40;71.40;;;;;;2331447;58;21179;-67
2023/11/12 01:11:59;;;;;;;6.45;2.50;;;11.40;71.30;;;;;;2130490;58;22048;-66
2023/11/12 01:14:25;;;;;;;4.55;2.08;;;11.40;71.20;;;;;;2332018;58;20977;-67
2023/11/12 01:16:52;;;;;;;5.15;2.28;;;11.30;70.90;;;;;;2128797;59;21002;-65
2023/11/12 01:19:19;;;;;;;4.00;1.62;;;11.30;70.70;;;;;;2129124;58;20958;-66
2023/11/12 01:21:45;;;;;;;6.03;1.40;;;11.30;70.60;;;;;;2130228;59;20990;-67
2023/11/12 01:24:12;;;;;;;3.28;1.15;;;11.20;70.30;;;;;;2129415;59;20989;-66
2023/11/12 01:26:38;;;;;;;2.97;0.98;;;11.20;70.30;;;;;;2129006;59;21034;-66
2023/11/12 01:29:09;;;;;;;2.95;0.80;;;11.20;70.20;;;;;;2132945;59;20993;-70
2023/11/12 01:31:35;;;;;;;1.70;0.65;;;11.10;70.10;;;;;;2335792;58;21034;-68
2023/11/12 01:34:02;;;;;;;1.37;0.52;;;11.10;70.00;;;;;;2331699;58;21062;-68
2023/11/12 01:36:29;;;;;;;2.90;0.80;;;11.00;70.00;;;;;;2330570;58;20958;-68
2023/11/12 01:38:55;;;;;;;2.65;0.70;;;11.00;70.00;;;;;;2129653;59;21081;-68
2023/11/12 01:41:22;;;;;;;1.58;0.60;;;10.90;70.00;;;;;;2135298;59;20958;-69
2023/11/12 01:43:52;;;;;;;2.10;0.50;;;10.90;70.00;;;;;;2333037;58;20961;-68
2023/11/12 01:46:18;;;;;;;1.73;0.65;;;10.80;69.90;;;;;;2302446;58;1727666;-69
2023/11/12 01:48:45;;;;;;;2.85;0.62;;;10.90;70.10;;;;;;2331695;58;20977;-69
2023/11/12 01:51:11;;;;;;;2.08;0.68;;;10.80;70.00;;;;;;2331902;58;21090;-70
2023/11/12 01:53:37;;;;;;;2.10;0.70;;;10.70;69.90;;;;;;2129984;59;20998;-68
2023/11/12 01:56:08;;;;;;;1.62;0.57;;;10.70;69.90;;;;;;2331648;58;20986;-70
2023/11/12 01:58:34;;;;;;;1.70;0.70;;;10.60;69.80;;;;;;2331486;58;20934;-69
2023/11/12 02:01:00;;;;;;;2.25;0.73;;;10.50;69.90;;;;;;2331821;58;20942;-69
2023/11/12 02:03:30;;;;;;;2.97;0.77;;;10.50;69.90;;;;;;2330532;58;20970;-68
2023/11/12 02:05:57;;;;;;;2.05;0.57;;;10.50;70.00;;;;;;2331762;58;20970;-69
2023/11/12 02:08:23;;;;;;;2.25;0.62;;;10.50;70.00;;;;;;2132432;58;21088;-68
2023/11/12 02:10:50;;;;;;;2.62;0.88;;;10.40;69.80;;;;;;2137032;58;21006;-69
2023/11/12 02:13:17;;;;;;;1.50;0.60;;;10.50;70.00;;;;;;2322150;59;21086;-70
2023/11/12 02:15:46;;;;;;;2.37;0.73;;;10.30;69.80;;;;;;2319282;58;20977;-69
2023/11/12 02:18:12;;;;;;;2.42;0.70;;;10.40;69.90;;;;;;2129563;58;20957;-68
2023/11/12 02:20:45;;;;;;;1.70;0.60;;;10.20;69.70;;;;;;2331236;58;20964;-68
2023/11/12 02:23:15;;;;;;;3.22;0.50;;;10.20;69.40;;;;;;2129589;59;21514;-68
2023/11/12 02:25:47;;;;;;;3.87;0.68;;;10.20;69.60;;;;;;2330376;58;20965;-70
2023/11/12 02:28:15;;;;;;;1.83;0.60;;;10.10;69.30;;;;;;2129848;58;20998;-68
2023/11/12 02:30:41;;;;;;;3.15;0.68;;;10.10;69.40;;;;;;2129425;59;20966;-70
2023/11/12 02:33:08;;;;;;;2.08;0.50;;;10.00;69.50;;;;;;2129769;59;21396;-68
2023/11/12 02:35:42;;;;;;;2.20;0.60;;;10.00;69.60;;;;;;2331216;58;21504;-68
2023/11/12 02:38:12;;;;;;;2.45;0.90;;;9.90;70.70;;;;;;2130154;59;20982;-69
2023/11/12 02:40:38;;;;;;;1.45;0.68;;;9.90;70.80;;;;;;2331091;58;20966;-69
2023/11/12 02:43:08;;;;;;;2.45;0.60;;;9.80;70.70;;;;;;2331290;58;21006;-69
2023/11/12 02:45:35;;;;;;;2.10;0.50;;;9.70;70.70;;;;;;2129691;59;20989;-68
2023/11/12 02:48:02;;;;;;;2.37;0.50;;;9.80;70.80;;;;;;2133471;59;21053;-68
2023/11/12 02:50:31;;;;;;;1.40;0.57;;;9.70;70.70;;;;;;2335267;58;21852;-68
2023/11/12 02:53:03;;;;;;;1.70;0.60;;;9.70;70.70;;;;;;2130065;58;21023;-70
2023/11/12 02:55:29;;;;;;;2.75;0.70;;;9.70;70.80;;;;;;2129736;59;20973;-68
2023/11/12 02:57:56;;;;;;;3.00;0.75;;;9.60;70.80;;;;;;2331886;58;21025;-67
2023/11/12 03:00:22;;;;;;;1.02;0.50;;;9.60;70.80;;;;;;2330789;58;20958;-68
2023/11/12 03:02:49;;;;;;;2.85;0.80;;;9.60;70.80;;;;;;2331149;58;21038;-67
2023/11/12 03:05:16;;;;;;;1.40;0.50;;;9.60;70.80;;;;;;2331512;58;20978;-69
2023/11/12 03:07:43;;;;;;;2.08;0.60;;;9.50;70.80;;;;;;2331305;58;21093;-69
2023/11/12 03:10:09;;;;;;;1.58;0.60;;;9.50;70.80;;;;;;2331435;58;22050;-69
2023/11/12 03:12:39;;;;;;;1.42;0.50;;;9.50;70.80;;;;;;2331206;58;21757;-69
2023/11/12 03:15:07;;;;;;;1.08;0.52;;;9.40;70.80;;;;;;2133987;58;21422;-68
2023/11/12 03:17:34;;;;;;;1.40;0.60;;;9.40;70.90;;;;;;2129693;58;20938;-69
2023/11/12 03:20:04;;;;;;;2.85;0.60;;;9.40;70.90;;;;;;2130123;59;21025;-68
2023/11/12 03:22:39;;;;;;;2.65;0.70;;;9.30;70.90;;;;;;2136264;58;21003;-67
2023/11/12 03:25:05;;;;;;;2.33;0.62;;;9.40;70.80;;;;;;2333290;58;20974;-69
2023/11/12 03:27:32;;;;;;;1.35;0.50;;;9.30;70.90;;;;;;2129432;59;21705;-68
2023/11/12 03:29:59;;;;;;;2.35;0.60;;;9.30;70.90;;;;;;2331067;58;20926;-68
2023/11/12 03:32:25;;;;;;;1.75;0.60;;;9.30;70.90;;;;;;2129791;58;20990;-69
2023/11/12 03:35:19;;;;;;;2.03;0.57;;;9.20;70.90;;;;;;2130847;58;20950;-69
2023/11/12 03:37:46;;;;;;;2.78;0.57;;;9.20;70.50;;;;;;2330345;58;21739;-67
2023/11/12 03:40:12;;;;;;;0.98;0.50;;;9.20;71.00;;;;;;2330782;58;21494;-67
2023/11/12 03:42:39;;;;;;;2.05;0.57;;;9.20;71.10;;;;;;2333795;58;20993;-68
2023/11/12 03:45:05;;;;;;;1.85;0.65;;;9.20;71.30;;;;;;2333066;58;21113;-68
2023/11/12 03:47:32;;;;;;;1.35;0.50;;;9.10;71.20;;;;;;2136993;58;21054;-68
2023/11/12 03:49:59;;;;;;;2.42;0.93;;;9.10;71.20;;;;;;2130435;59;21487;-69
2023/11/12 03:52:28;;;;;;;2.87;0.98;;;9.10;71.10;;;;;;2130696;59;21014;-68
2023/11/12 03:54:54;;;;;;;3.67;0.80;;;9.10;71.10;;;;;;2331555;58;20965;-70
2023/11/12 03:57:21;;;;;;;4.03;0.70;;;9.10;71.20;;;;;;2331048;58;20989;-70
2023/11/12 03:59:51;;;;;;;2.75;0.82;;;9.00;71.10;;;;;;2331113;58;21011;-69
2023/11/12 04:02:19;;;;;;;3.05;1.08;;;9.10;71.30;;;;;;2129860;59;20978;-68
2023/11/12 04:04:46;;;;;;;2.42;0.93;;;9.10;71.30;;;;;;2331740;58;21715;-67
2023/11/12 04:07:13;;;;;;;2.78;1.10;;;9.00;71.30;;;;;;2129919;59;20994;-69
2023/11/12 04:10:04;;;;;;;5.95;2.50;;;9.00;71.30;;;;;;2331730;58;20958;-68
2023/11/12 04:12:35;;;;;;;8.35;3.05;;;9.00;70.80;;;;;;2130093;59;21066;-68
2023/11/12 04:15:04;;;;;;;6.18;3.03;;;9.00;71.30;;;;;;2129811;58;20989;-69
2023/11/12 04:17:31;;;;;;;9.57;3.92;;;9.00;71.40;;;;;;2333593;58;21058;-68
2023/11/12 04:19:58;;;;;;;8.70;3.90;;;9.00;71.40;;;;;;2131830;59;20982;-68
2023/11/12 04:22:25;;;;;;;6.47;2.42;;;9.00;71.30;;;;;;2129461;59;21584;-69
2023/11/12 04:24:53;;;;;;;7.37;3.33;;;8.90;71.20;;;;;;2331623;58;20992;-67
2023/11/12 04:27:20;;;;;;;6.25;2.87;;;9.00;71.40;;;;;;2129659;59;21814;-69
2023/11/12 04:30:17;;;;;;;7.50;3.08;;;9.00;71.40;;;;;;2130434;59;21018;-67
2023/11/12 04:32:44;;;;;;;5.03;2.40;;;8.90;71.00;;;;;;2125274;59;21003;-67
2023/11/12 04:35:11;;;;;;;4.90;1.90;;;8.90;71.40;;;;;;2331722;57;21102;-68
2023/11/12 04:37:38;;;;;;;5.22;2.20;;;8.90;71.50;;;;;;2332919;58;21077;-69
2023/11/12 04:40:06;;;;;;;5.55;2.42;;;8.90;71.60;;;;;;2333264;58;20938;-70
2023/11/12 04:42:38;;;;;;;8.30;3.70;;;8.90;71.60;;;;;;2132155;59;20994;-67
2023/11/12 04:45:05;;;;;;;7.68;3.60;;;8.90;71.50;;;;;;2130487;59;21098;-68
2023/11/12 04:47:31;;;;;;;5.07;2.37;;;8.90;71.50;;;;;;2330563;58;21456;-70
2023/11/12 04:49:59;;;;;;;4.97;2.10;;;8.90;71.50;;;;;;2331361;58;20986;-69
2023/11/12 04:52:26;;;;;;;5.65;1.83;;;8.90;71.50;;;;;;2335548;58;21062;-68
2023/11/12 04:54:53;;;;;;;5.47;2.40;;;8.90;71.60;;;;;;2338683;58;21073;-69
2023/11/12 04:57:19;;;;;;;8.68;3.28;;;8.90;71.70;;;;;;2331354;58;21001;-69
2023/11/12 04:59:46;;;;;;;11.93;5.12;;;8.90;71.80;;;;;;2330904;58;21419;-68
2023/11/12 05:02:16;;;;;;;5.15;2.87;;;8.90;71.90;;;;;;2331663;58;21026;-68
2023/11/12 05:04:42;;;;;;;6.55;2.35;;;8.90;71.80;;;;;;2331079;58;20973;-69
2023/11/12 05:07:09;;;;;;;3.50;1.90;;;8.90;71.80;;;;;;2331696;58;21462;-67
2023/11/12 05:09:35;;;;;;;5.03;2.10;;;8.90;71.80;;;;;;2331266;58;21547;-69
2023/11/12 05:12:02;;;;;;;4.95;1.65;;;8.90;71.90;;;;;;2130301;59;21002;-68
2023/11/12 05:14:29;;;;;;;4.97;2.40;;;8.90;71.80;;;;;;2330912;58;21026;-69
2023/11/12 05:16:55;;;;;;;6.28;2.95;;;8.90;71.80;;;;;;2331342;58;21067;-69
2023/11/12 05:19:22;;;;;;;7.97;3.20;;;8.90;71.80;;;;;;2331030;58;21002;-68
2023/11/12 05:21:48;;;;;;;5.78;2.50;;;8.90;71.80;;;;;;2331203;58;20981;-68
2023/11/12 05:24:14;;;;;;;4.37;2.20;;;9.00;71.90;;;;;;2336124;59;21010;-69
2023/11/12 05:26:41;;;;;;;5.25;2.22;;;8.90;71.90;;;;;;2330352;58;21091;-67
2023/11/12 05:29:07;;;;;;;4.72;2.00;;;9.00;72.00;;;;;;2331529;58;21824;-67
2023/11/12 05:31:37;;;;;;;4.40;1.70;;;8.90;71.90;;;;;;2129502;59;20982;-66
2023/11/12 05:34:03;;;;;;;3.58;1.25;;;9.00;71.80;;;;;;2129622;59;21059;-67
2023/11/12 05:36:29;;;;;;;4.87;2.30;;;9.00;71.80;;;;;;2331464;58;21073;-68
2023/11/12 05:38:56;;;;;;;3.97;1.67;;;8.90;71.60;;;;;;2130329;59;20981;-68
2023/11/12 05:41:22;;;;;;;3.83;1.85;;;8.90;71.60;;;;;;2331163;58;21039;-69
2023/11/12 05:43:50;;;;;;;3.85;1.50;;;8.90;71.60;;;;;;2331639;58;21049;-69
2023/11/12 05:46:19;;;;;;;2.87;1.10;;;8.90;71.60;;;;;;2331960;58;20970;-69
2023/11/12 05:48:46;;;;;;;2.67;1.00;;;9.00;71.80;;;;;;2332049;58;21010;-68
2023/11/12 05:51:12;;;;;;;2.87;1.30;;;8.90;71.70;;;;;;2129823;59;20990;-69
2023/11/12 05:53:38;;;;;;;4.10;1.48;;;8.90;71.70;;;;;;2129643;59;21601;-68
2023/11/12 05:56:05;;;;;;;3.10;1.40;;;8.90;71.80;;;;;;2129556;59;21767;-69
2023/11/12 05:58:31;;;;;;;3.03;1.48;;;8.90;71.80;;;;;;2330896;58;21506;-68
2023/11/12 06:00:59;;;;;;;3.62;1.40;;;8.90;71.80;;;;;;2331232;58;21494;-69
2023/11/12 06:03:26;;;;;;;3.28;1.35;;;8.90;71.80;;;;;;2331868;58;20966;-68
2023/11/12 06:05:52;;;;;;;3.22;1.50;;;8.90;71.80;;;;;;2129880;59;20987;-68
2023/11/12 06:08:22;;;;;;;2.87;1.30;;;9.10;72.10;;;;;;2129672;59;21659;-67
2023/11/12 06:10:48;;;;;;;2.47;1.15;;;8.90;71.90;;;;;;2128977;59;20998;-67
2023/11/12 06:13:15;;;;;;;2.15;1.00;;;8.90;71.90;;;;;;2137144;59;21046;-68
2023/11/12 06:15:42;;;;;;;2.97;1.25;;;8.90;71.90;;;;;;2131133;58;20978;-69
2023/11/12 06:18:08;;;;;;;2.92;1.20;;;9.00;72.10;;;;;;2331583;58;21282;-68
2023/11/12 06:20:35;;;;;;;2.72;1.20;;;9.00;72.10;;;;;;2331382;58;21034;-70
2023/11/12 06:23:02;;;;;;;3.10;1.33;;;9.00;72.20;;;;;;2331351;58;20971;-68
2023/11/12 06:25:29;;;;;;;2.70;1.17;;;9.00;72.20;;;;;;2331603;58;20986;-68
2023/11/12 06:27:55;;;;;;;4.28;1.70;;;9.00;72.20;;;;;;2331826;58;20958;-67
2023/11/12 06:30:23;;;;;;;5.90;1.45;;;9.00;72.20;;;;;;2331536;58;21094;-67
2023/11/12 06:32:51;;;;;;;4.65;1.20;;;9.00;72.10;;;;;;2129931;58;21050;-67
2023/11/12 06:35:17;;;;;;;3.10;1.50;;;9.00;72.10;;;;;;2130313;59;20954;-69
2023/11/12 06:37:43;;;;;;;2.95;1.30;;;9.10;72.20;;;;;;2130007;59;21002;-68
2023/11/12 06:40:12;;;;;;;2.83;1.40;;;9.10;72.20;;;;;;2331761;58;20934;-68
2023/11/12 06:42:42;;;;;;;3.00;1.33;;;9.10;72.20;;;;;;2129896;59;20950;-67
2023/11/12 06:45:09;;;;;;;2.70;1.15;;;9.10;72.10;;;;;;2331749;58;20966;-67
2023/11/12 06:47:35;;;;;;;2.47;1.10;;;9.10;72.20;;;;;;2331525;58;21010;-68
2023/11/12 06:50:06;;;;;;;3.78;1.10;;;9.10;72.20;;;;;;2331605;58;21019;-68
2023/11/12 06:52:32;;;;;;;2.33;1.23;;;9.10;72.20;;;;;;2134203;58;21093;-69
2023/11/12 06:55:01;;;;;;;2.83;1.37;;;9.10;72.30;;;;;;2336588;58;20982;-69
2023/11/12 06:57:28;;;;;;;3.25;1.27;;;9.10;72.40;;;;;;2331305;58;21002;-67
2023/11/12 06:59:56;;;;;;;2.92;1.17;;;9.10;72.40;;;;;;2129915;58;20945;-68
2023/11/12 07:02:22;;;;;;;2.85;1.20;;;9.10;72.40;;;;;;2130161;59;21120;-67
2023/11/12 07:04:52;;;;;;;3.65;1.50;;;9.10;72.50;;;;;;2129920;59;20998;-69
2023/11/12 07:07:18;;;;;;;3.20;1.58;;;9.20;72.60;;;;;;2337677;58;21122;-69
2023/11/12 07:09:45;;;;;;;2.40;1.30;;;9.20;72.50;;;;;;2332295;58;21034;-69
2023/11/12 07:12:14;;;;;;;2.70;1.15;;;9.20;72.60;;;;;;2337694;59;20969;-68
2023/11/12 07:14:41;;;;;;;3.08;1.08;;;9.20;72.60;;;;;;2133344;59;21005;-69
2023/11/12 07:17:07;;;;;;;2.55;0.98;;;9.20;72.60;;;;;;2331144;58;21002;-69
2023/11/12 07:19:34;;;;;;;2.30;0.98;;;9.20;72.60;;;;;;2129424;59;21140;-67
2023/11/12 07:22:00;;;;;;;1.48;0.73;;;9.20;72.60;;;;;;2129357;58;20989;-69
2023/11/12 07:24:26;;;;;;;2.17;0.82;;;9.30;72.80;;;;;;2129406;59;21033;-67
2023/11/12 07:26:53;;;;;;;2.97;0.95;;;9.30;72.80;;;;;;2330374;58;20977;-68
2023/11/12 07:29:22;;;;;;;1.50;0.70;;;9.30;72.80;;;;;;2331195;57;21022;-67
2023/11/12 07:31:49;;;;;;;2.58;0.80;;;9.30;72.80;;;;;;2331963;58;21037;-67
2023/11/12 07:34:15;;;;;;;2.12;0.77;;;9.30;72.80;;;;;;2334995;58;21638;-69
2023/11/12 07:36:41;;;;;;;4.45;0.77;;;9.30;72.90;;;;;;2331117;58;21746;-68
2023/11/12 07:39:12;;;;;;;2.50;0.77;;;9.40;73.00;;;;;;2331129;58;20954;-69
2023/11/12 07:41:39;;;;;;;1.90;0.80;;;9.30;72.90;;;;;;2330620;58;21050;-68
2023/11/12 07:44:06;;;;;;;2.95;1.35;;;9.40;73.00;;;;;;2134166;59;21104;-69
2023/11/12 07:46:33;;;;;;;2.03;0.70;;;9.50;73.20;;;;;;2332556;58;21025;-69
2023/11/12 07:48:59;;;;;;;2.72;1.00;;;9.50;73.20;;;;;;2330804;58;21527;-68
2023/11/12 07:51:26;;;;;;;4.68;1.08;;;9.50;73.20;;;;;;2330768;58;20994;-69
2023/11/12 07:53:52;;;;;;;1.85;0.80;;;9.50;73.20;;;;;;2332339;58;20983;-68
2023/11/12 07:56:21;;;;;;;1.65;0.75;;;9.60;73.30;;;;;;2133007;59;21295;-69
2023/11/12 07:58:49;;;;;;;2.60;1.20;;;9.60;73.20;;;;;;2130548;59;20997;-69
2023/11/12 08:01:15;;;;;;;2.65;0.80;;;9.60;73.30;;;;;;2129433;59;21516;-69
2023/11/12 08:03:42;;;;;;;3.47;1.10;;;9.60;73.20;;;;;;2129258;59;21083;-68
2023/11/12 08:06:09;;;;;;;2.28;0.70;;;9.70;73.30;;;;;;2129384;59;20973;-68
2023/11/12 08:08:36;;;;;;;1.65;0.52;;;9.70;73.30;;;;;;2331651;58;21475;-69
2023/11/12 08:11:03;;;;;;;2.92;0.73;;;9.70;73.40;;;;;;2330531;58;21739;-70
2023/11/12 08:13:32;;;;;;;1.42;0.50;;;9.80;73.40;;;;;;2326802;58;20973;-68
2023/11/12 08:15:59;;;;;;;1.75;0.65;;;9.80;73.30;;;;;;2135314;59;21503;-67
2023/11/12 08:18:26;;;;;;;1.58;0.70;;;9.80;73.40;;;;;;2334025;58;21085;-68
2023/11/12 08:20:54;;;;;;;0.98;0.37;;;9.80;73.40;;;;;;2331640;58;21583;-68
2023/11/12 08:23:21;;;;;;;1.62;0.50;;;9.90;73.50;;;;;;2336936;59;21033;-70
2023/11/12 08:25:47;;;;;;;2.03;0.50;;;9.90;73.50;;;;;;2130811;59;21065;-70
2023/11/12 08:28:15;;;;;;;2.33;0.68;;;9.90;73.50;;;;;;2128741;59;21164;-68
2023/11/12 08:30:41;;;;;;;3.12;0.98;;;10.00;72.40;;;;;;2330639;58;21531;-69
2023/11/12 08:33:10;;;;;;;3.90;0.95;;;10.00;72.30;;;;;;2330279;58;20998;-68
2023/11/12 08:35:37;;;;;;;3.40;1.02;;;10.10;72.40;;;;;;2330875;58;20974;-69
2023/11/12 08:38:17;;;;;;;2.15;0.85;;;10.10;72.50;;;;;;2330911;58;21042;-68
2023/11/12 08:40:45;;;;;;;4.20;1.73;;;10.20;72.20;;;;;;2329914;58;20956;-67
2023/11/12 08:43:14;;;;;;;4.47;1.92;;;10.20;72.50;;;;;;2330733;58;21013;-68
2023/11/12 08:45:41;;;;;;;7.25;2.15;;;10.20;72.50;;;;;;2331522;58;21299;-68
2023/11/12 08:48:08;;;;;;;4.05;1.87;;;10.20;72.50;;;;;;2129442;59;20934;-68
2023/11/12 08:50:35;;;;;;;4.55;1.67;;;10.30;72.60;;;;;;2129951;59;21494;-68
2023/11/12 08:53:02;;;;;;;4.30;1.20;;;10.30;72.50;;;;;;2129505;59;20997;-68
2023/11/12 08:55:28;;;;;;;5.37;1.05;;;10.40;72.60;;;;;;2331089;58;21062;-68
2023/11/12 08:57:57;;;;;;;4.12;0.85;;;10.40;72.50;;;;;;2331615;58;22081;-69
2023/11/12 09:00:23;;;;;;;4.25;2.08;;;10.40;72.50;;;;;;2129299;59;21106;-68
2023/11/12 09:02:50;;;;;;;3.40;1.75;;;10.40;72.40;;;;;;2331586;58;21105;-70
2023/11/12 09:05:17;;;;;;;3.30;1.42;;;10.50;72.50;;;;;;2330980;58;21097;-69
2023/11/12 09:07:43;;;;;;;4.00;1.62;;;10.50;72.50;;;;;;2331093;58;20981;-70
2023/11/12 09:10:09;;;;;;;3.03;1.02;;;10.50;72.40;;;;;;2129524;59;21026;-69
2023/11/12 09:12:36;;;;;;;2.10;0.90;;;10.60;72.50;;;;;;2331620;58;21459;-68
2023/11/12 09:15:05;;;;;;;3.17;1.10;;;10.60;72.50;;;;;;2331191;58;21054;-67
2023/11/12 09:17:32;;;;;;;1.58;0.80;;;10.70;72.60;;;;;;2130912;58;21086;-68
2023/11/12 09:19:59;;;;;;;2.78;0.85;;;10.70;72.50;;;;;;2130247;59;20994;-69
2023/11/12 09:22:29;;;;;;;3.33;0.77;;;10.70;72.40;;;;;;2331710;58;20978;-69
2023/11/12 09:24:56;;;;;;;2.22;0.82;;;10.80;72.40;;;;;;2129973;59;20973;-69
2023/11/12 09:27:27;;;;;;;2.60;1.00;;;10.80;72.40;;;;;;2136741;59;21017;-68
2023/11/12 09:29:55;;;;;;;1.45;0.77;;;10.80;72.30;;;;;;2137687;58;20994;-69
2023/11/12 09:32:21;;;;;;;1.65;0.77;;;10.80;72.20;;;;;;2330785;58;22054;-68
2023/11/12 09:34:48;;;;;;;2.17;0.95;;;10.90;72.20;;;;;;2331611;58;20978;-69
2023/11/12 09:37:14;;;;;;;2.25;0.90;;;10.90;72.20;;;;;;2331161;58;21571;-69
2023/11/12 09:39:44;;;;;;;2.58;0.70;;;11.00;72.30;;;;;;2129945;59;21027;-68
2023/11/12 09:42:12;;;;;;;2.60;0.90;;;11.00;72.20;;;;;;2331093;58;20986;-68
2023/11/12 09:44:39;;;;;;;2.00;0.70;;;11.00;72.30;;;;;;2331201;58;20949;-69
2023/11/12 09:47:25;;;;;;;2.20;0.90;;;11.00;72.20;;;;;;2330702;58;20993;-68
2023/11/12 09:49:53;;;;;;;2.62;0.73;;;11.10;71.90;;;;;;2130319;59;21053;-65
2023/11/12 09:52:22;;;;;;;2.97;0.98;;;11.10;72.10;;;;;;2334093;58;21142;-65
2023/11/12 09:54:48;;;;;;;2.95;0.88;;;11.10;72.10;;;;;;2132796;58;21462;-68
2023/11/12 09:57:14;;;;;;;3.83;1.40;;;11.10;72.10;;;;;;2129579;59;21142;-68
2023/11/12 09:59:43;;;;;;;10.85;4.35;;;11.20;72.10;;;;;;2331413;58;21038;-66
2023/11/12 10:02:10;;;;;;;10.48;4.60;;;11.20;72.20;;;;;;2330859;58;21022;-68
2023/11/12 10:04:38;;;;;;;9.77;3.78;;;11.20;72.10;;;;;;2130066;59;20982;-69
2023/11/12 10:07:04;;;;;;;5.55;2.50;;;11.20;72.10;;;;;;2130269;59;22112;-66
2023/11/12 10:09:31;;;;;;;4.65;1.65;;;11.30;72.20;;;;;;2136036;58;21580;-69
2023/11/12 10:12:04;;;;;;;3.35;1.17;;;11.30;72.80;;;;;;2131648;59;20970;-66
2023/11/12 10:14:30;;;;;;;3.50;1.62;;;11.30;71.90;;;;;;2129949;58;21029;-66
2023/11/12 10:17:12;;;;;;;5.05;1.62;;;11.30;72.10;;;;;;2130309;59;21080;-65
2023/11/12 10:19:38;;;;;;;2.67;1.00;;;11.40;71.40;;;;;;2137260;58;20962;-66
2023/11/12 10:22:07;;;;;;;3.35;1.20;;;11.40;71.90;;;;;;2130007;59;21026;-66
2023/11/12 10:24:45;;;;;;;2.53;1.10;;;11.40;71.90;;;;;;2330946;58;20969;-69
2023/11/12 10:27:14;;;;;;;2.87;1.12;;;11.40;71.30;;;;;;2129481;58;20978;-68
2023/11/12 10:29:41;;;;;;;3.58;1.33;;;11.40;71.80;;;;;;2331707;58;21622;-69
2023/11/12 10:32:07;;;;;;;1.90;0.88;;;11.40;71.70;;;;;;2331484;58;21670;-67
2023/11/12 10:34:48;;;;;;;3.37;1.40;;;11.40;71.70;;;;;;2337299;58;20998;-68
2023/11/12 10:37:16;;;;;;;5.80;2.42;;;11.50;71.40;;;;;;2332876;58;21023;-68
2023/11/12 10:39:44;;;;;;;5.12;2.08;;;11.50;71.80;;;;;;2334183;58;21083;-69
2023/11/12 10:42:23;;;;;;;57.40;24.40;;;11.50;71.70;;;;;;2337665;58;21103;-66
2023/11/12 10:44:59;;;;;;;25.77;12.40;;;11.50;71.40;;;;;;2331740;58;21325;-67
2023/11/12 10:47:26;;;;;;;13.20;6.45;;;11.50;71.40;;;;;;2331137;58;21877;-67
2023/11/12 10:49:53;;;;;;;9.90;4.15;;;11.50;71.60;;;;;;2331589;58;21085;-67
2023/11/12 10:52:21;;;;;;;7.35;3.50;;;11.60;71.80;;;;;;2133797;59;21062;-65
2023/11/12 10:54:47;;;;;;;6.30;2.92;;;11.60;71.80;;;;;;2338033;59;21033;-65
2023/11/12 10:57:14;;;;;;;5.50;1.87;;;11.60;71.90;;;;;;2333501;58;20954;-66
2023/11/12 10:59:42;;;;;;;4.25;1.75;;;11.60;72.00;;;;;;2138849;59;21041;-66
2023/11/12 11:02:21;;;;;;;5.78;2.42;;;11.60;71.90;;;;;;2130446;58;21022;-66
2023/11/12 11:04:47;;;;;;;4.70;1.83;;;11.70;71.70;;;;;;2332471;58;20986;-67
2023/11/12 11:07:16;;;;;;;4.85;1.92;;;11.70;71.80;;;;;;2331369;58;20982;-66
2023/11/12 11:09:45;;;;;;;3.65;1.70;;;11.70;71.80;;;;;;2331519;58;21368;-68
2023/11/12 11:12:11;;;;;;;4.72;1.98;;;11.70;71.80;;;;;;2130411;58;21430;-65
2023/11/12 11:14:38;;;;;;;2.87;1.37;;;11.80;72.00;;;;;;2332113;58;20942;-65
2023/11/12 11:17:08;;;;;;;3.47;1.60;;;11.80;72.00;;;;;;2331528;58;21466;-67
2023/11/12 11:20:53;;;;;;;3.62;1.08;;;11.80;72.10;;;;;;2331545;58;21078;-67
2023/11/12 11:23:37;;;;;;;3.03;1.20;;;11.90;70.70;;;;;;2331591;58;20977;-67
2023/11/12 11:26:46;;;;;;;3.92;1.50;;;11.90;71.10;;;;;;2129872;59;21066;-66
2023/11/12 11:29:16;;;;;;;3.65;1.45;;;11.90;70.60;;;;;;2331125;57;20958;-68
2023/11/12 11:32:16;;;;;;;4.45;1.90;;;11.90;71.70;;;;;;2130134;58;20981;-68
2023/11/12 11:34:43;;;;;;;3.67;1.58;;;11.90;70.80;;;;;;2129619;59;21046;-67
2023/11/12 11:37:10;;;;;;;4.43;2.05;;;12.00;71.80;;;;;;2337442;58;20986;-66
2023/11/12 11:39:37;;;;;;;4.25;1.85;;;12.00;71.90;;;;;;2330124;58;21042;-68
2023/11/12 11:42:21;;;;;;;3.33;1.62;;;12.00;71.90;;;;;;2333188;58;21503;-66
2023/11/12 11:44:51;;;;;;;3.17;1.27;;;12.00;71.00;;;;;;2331579;58;21061;-67
2023/11/12 11:47:22;;;;;;;2.95;1.10;;;12.00;71.50;;;;;;2128242;59;20965;-68
2023/11/12 11:50:51;;;;;;;3.33;1.10;;;12.10;71.40;;;;;;2331454;58;21502;-68
2023/11/12 11:53:17;;;;;;;2.70;1.10;;;12.10;70.40;;;;;;2129784;59;21420;-65
2023/11/12 11:55:47;;;;;;;2.40;1.12;;;12.10;71.60;;;;;;2335242;58;20970;-65
2023/11/12 11:58:13;;;;;;;4.07;1.45;;;12.10;72.10;;;;;;2340110;58;21002;-67
2023/11/12 12:00:59;;;;;;;3.80;1.33;;;12.10;71.30;;;;;;2335331;58;21117;-66
2023/11/12 12:03:29;;;;;;;4.12;1.45;;;12.10;70.60;;;;;;2331211;58;21018;-66
2023/11/12 12:05:55;;;;;;;2.45;1.12;;;12.10;71.10;;;;;;2337577;58;21013;-66
2023/11/12 12:08:22;;;;;;;2.65;1.27;;;12.10;71.10;;;;;;2331779;58;20990;-65
2023/11/12 12:10:49;;;;;;;4.10;1.10;;;12.10;71.00;;;;;;2336521;58;20990;-67
2023/11/12 12:13:20;;;;;;;3.20;1.60;;;12.10;71.20;;;;;;2130428;59;20942;-65
2023/11/12 12:15:49;;;;;;;4.15;1.10;;;12.10;71.00;;;;;;2334880;58;20985;-66
2023/11/12 12:18:21;;;;;;;3.17;1.33;;;12.10;71.20;;;;;;2336085;58;21472;-67
2023/11/12 12:20:51;;;;;;;4.93;1.60;;;12.10;71.90;;;;;;2335085;58;21439;-67
2023/11/12 12:23:20;;;;;;;3.15;1.37;;;12.10;71.20;;;;;;2331587;58;21375;-66
2023/11/12 12:25:52;;;;;;;2.78;1.23;;;12.10;71.10;;;;;;2129995;59;20949;-67
2023/11/12 12:28:20;;;;;;;;;;;12.10;70.90;;;;;;2132704;59;20966;-67
2023/11/12 12:30:52;;;;;;;4.40;1.12;;;12.10;70.00;;;;;;2331320;58;20054;-70
2023/11/12 12:33:18;;;;;;;2.78;1.30;;;12.10;71.10;;;;;;2331259;58;21757;-69
2023/11/12 12:35:45;;;;;;;3.15;1.40;;;12.10;71.20;;;;;;2331232;58;20934;-70
2023/11/12 12:38:12;;;;;;;2.95;1.40;;;12.10;71.20;;;;;;2331977;58;20949;-68
2023/11/12 12:40:38;;;;;;;2.67;1.33;;;12.10;71.40;;;;;;2331244;58;20953;-65
2023/11/12 12:43:10;;;;;;;3.15;1.50;;;12.10;71.40;;;;;;2129777;59;20970;-67
2023/11/12 12:45:36;;;;;;;3.20;1.50;;;12.10;71.40;;;;;;2331477;58;20990;-67
2023/11/12 12:48:11;;;;;;;16.87;6.90;;;12.10;71.40;;;;;;2332028;58;21010;-65
2023/11/12 12:50:39;;;;;;;15.63;6.43;;;12.10;71.20;;;;;;2331324;58;21399;-65
2023/11/12 12:53:18;;;;;;;13.57;5.18;;;12.10;71.50;;;;;;2331841;58;21015;-68
2023/11/12 12:55:44;;;;;;;8.93;3.90;;;12.10;71.40;;;;;;2331569;58;21407;-67
2023/11/12 12:58:11;;;;;;;6.50;3.47;;;12.10;71.70;;;;;;2336185;58;21049;-67